Terminal Aerodrome Forecast
Issued by NWS

Current Version | Previous Version | Graphics & Text | Print | Product List | Glossary On
Versions: 1 2 3 4 5 6 7 8 9 10 11 12 13 14 15 16 17 18 19
000
FTUS41 KPBZ 271700
TAFMGW
TAF
KMGW 271730Z 2718/2818 32006KT P6SM OVC040
     FM280300 33008KT P6SM BKN025
     FM281100 34007KT P6SM SCT035=

USA.gov is the U.S. government's official web portal to all federal, state and local government web resources and services.